Terminal Aerodrome Forecast
Issued by NWS

Home | Current Version | Previous Version | Text Only | Print | Product List | Glossary Off
Versions: 1 2 3 4 5 6 7 8 9 10 11 12 13 14 15 16 17 18 19 20 21 22

000
FTUS44 KTSA 301700
TAFMLC
TAF
KMLC 301723Z 3018/3118 32009KT 3SM BR OVC005
      TEMPO 3018/3022 P6SM NSW BKN012
     FM302200 01011KT P6SM BKN015
      TEMPO 3111/3115 BKN007
     FM311500 02006KT P6SM BKN015=

USA.gov is the U.S. government's official web portal to all federal, state and local government web resources and services.